createdAt,value
2019-02-15T00:00:28.580Z,409.21
2019-02-15T00:01:28.558Z,408.30
2019-02-15T00:02:28.583Z,409.20
2019-02-15T00:03:28.551Z,409.64
2019-02-15T00:04:28.529Z,409.86
2019-02-15T00:05:28.528Z,408.78
2019-02-15T00:06:28.504Z,408.76
2019-02-15T00:07:28.514Z,408.86
2019-02-15T00:08:28.499Z,409.01
2019-02-15T00:09:28.494Z,408.99
2019-02-15T00:10:28.474Z,407.96
2019-02-15T00:11:28.474Z,408.00
2019-02-15T00:12:28.450Z,408.37
2019-02-15T00:13:28.435Z,408.13
2019-02-15T00:14:28.428Z,409.51
2019-02-15T00:15:28.434Z,409.11
2019-02-15T00:16:28.400Z,408.67
2019-02-15T00:17:28.400Z,407.85
2019-02-15T00:18:30.130Z,408.59
2019-02-15T00:19:28.372Z,408.35
2019-02-15T00:20:28.362Z,409.27
2019-02-15T00:21:28.339Z,409.26
2019-02-15T00:22:28.456Z,409.67
2019-02-15T00:23:28.331Z,408.66
2019-02-15T00:24:28.315Z,409.38
2019-02-15T00:25:28.332Z,408.14
2019-02-15T00:26:28.319Z,409.73
2019-02-15T00:27:28.314Z,409.27
2019-02-15T00:28:28.281Z,408.67
2019-02-15T00:29:28.253Z,408.53
2019-02-15T00:30:28.252Z,408.94
2019-02-15T00:31:28.235Z,409.54
2019-02-15T00:32:28.234Z,409.25
2019-02-15T00:33:28.237Z,408.92
2019-02-15T00:34:28.217Z,409.61
2019-02-15T00:35:28.185Z,408.66
2019-02-15T00:36:28.181Z,409.26
2019-02-15T00:37:28.170Z,408.91
2019-02-15T00:38:28.199Z,408.65
2019-02-15T00:39:28.153Z,408.90
2019-02-15T00:40:28.133Z,409.47
2019-02-15T00:41:28.123Z,408.51
2019-02-15T00:42:28.107Z,409.08
2019-02-15T00:43:28.119Z,408.26
2019-02-15T00:44:28.095Z,409.41
2019-02-15T00:45:28.084Z,408.30
2019-02-15T00:46:28.068Z,408.92
2019-02-15T00:47:28.062Z,408.30
2019-02-15T00:48:28.057Z,409.24
2019-02-15T00:49:28.045Z,409.18
2019-02-15T00:50:28.028Z,408.35
2019-02-15T00:51:28.011Z,408.06
2019-02-15T00:52:28.011Z,408.28
2019-02-15T00:53:28.007Z,408.70
2019-02-15T00:54:27.978Z,408.10
2019-02-15T00:55:27.972Z,408.25
2019-02-15T00:56:27.960Z,407.87
2019-02-15T00:57:27.952Z,407.23
2019-02-15T00:58:27.949Z,407.78
2019-02-15T00:59:27.927Z,407.60
2019-02-15T01:00:27.911Z,407.82
2019-02-15T01:01:27.901Z,408.23
2019-02-15T01:02:27.891Z,408.52
2019-02-15T01:03:27.911Z,407.96
2019-02-15T01:04:27.862Z,408.07
2019-02-15T01:05:27.861Z,407.59
2019-02-15T01:06:27.858Z,408.14
2019-02-15T01:07:27.839Z,407.87
2019-02-15T01:08:27.846Z,408.37
2019-02-15T01:09:27.809Z,407.85
2019-02-15T01:10:27.809Z,407.89
2019-02-15T01:11:27.796Z,408.28
2019-02-15T01:12:27.793Z,408.09
2019-02-15T01:13:31.197Z,408.23
2019-02-15T01:14:27.766Z,407.86
2019-02-15T01:15:27.767Z,407.89
2019-02-15T01:16:27.743Z,408.27
2019-02-15T01:17:27.765Z,407.78
2019-02-15T01:18:27.733Z,408.45
2019-02-15T01:19:27.710Z,408.26
2019-02-15T01:20:27.695Z,407.65
2019-02-15T01:21:27.673Z,408.15
2019-02-15T01:22:27.680Z,408.09
2019-02-15T01:23:27.681Z,407.95
2019-02-15T01:24:27.650Z,407.64
2019-02-15T01:25:27.638Z,408.12
2019-02-15T01:26:27.637Z,408.38
2019-02-15T01:27:27.622Z,407.56
2019-02-15T01:28:27.628Z,408.34
2019-02-15T01:29:27.604Z,407.87
2019-02-15T01:30:27.581Z,408.32
2019-02-15T01:31:27.569Z,408.04
2019-02-15T01:32:27.563Z,407.83
2019-02-15T01:33:27.554Z,407.19
2019-02-15T01:34:27.553Z,408.29
2019-02-15T01:35:27.525Z,408.00
2019-02-15T01:36:27.526Z,407.83
2019-02-15T01:37:27.503Z,405.05
2019-02-15T01:38:27.492Z,407.47
2019-02-15T01:39:27.510Z,408.16
2019-02-15T01:40:27.471Z,407.62
2019-02-15T01:41:27.454Z,407.79
2019-02-15T01:42:27.450Z,408.19
2019-02-15T01:43:27.436Z,408.87
2019-02-15T01:44:27.440Z,407.63
2019-02-15T01:45:27.419Z,407.49
2019-02-15T01:46:27.404Z,407.63
2019-02-15T01:47:27.401Z,408.17
2019-02-15T01:48:27.372Z,407.85
2019-02-15T01:49:27.376Z,408.45
2019-02-15T01:50:27.363Z,408.14
2019-02-15T01:51:27.343Z,407.49
2019-02-15T01:52:27.338Z,407.96
2019-02-15T01:53:27.316Z,407.83
2019-02-15T01:54:27.343Z,407.05
2019-02-15T01:55:27.300Z,407.95
2019-02-15T01:56:27.290Z,407.14
2019-02-15T01:57:27.276Z,407.33
2019-02-15T01:58:27.274Z,407.00
2019-02-15T01:59:27.271Z,407.59
2019-02-15T02:00:27.240Z,407.49
2019-02-15T02:01:27.237Z,407.33
2019-02-15T02:02:27.258Z,407.73
2019-02-15T02:03:27.216Z,407.67
2019-02-15T02:04:27.215Z,407.62
2019-02-15T02:05:27.197Z,407.53
2019-02-15T02:06:27.187Z,407.56
2019-02-15T02:07:27.165Z,407.56
2019-02-15T02:08:27.159Z,407.57
2019-02-15T02:09:27.199Z,408.43
2019-02-15T02:10:27.134Z,407.77
2019-02-15T02:11:27.118Z,408.10
2019-02-15T02:12:27.103Z,407.56
2019-02-15T02:13:27.102Z,407.78
2019-02-15T02:14:27.090Z,407.48
2019-02-15T02:15:27.120Z,408.01
2019-02-15T02:16:27.062Z,407.47
2019-02-15T02:17:27.059Z,408.05
2019-02-15T02:18:27.045Z,407.50
2019-02-15T02:19:27.063Z,408.37
2019-02-15T02:20:27.047Z,407.84
2019-02-15T02:21:27.009Z,408.15
2019-02-15T02:22:27.007Z,407.31
2019-02-15T02:23:26.999Z,407.54
2019-02-15T02:24:26.981Z,407.52
2019-02-15T02:25:26.976Z,407.21
2019-02-15T02:26:26.959Z,407.84
2019-02-15T02:27:26.943Z,408.23
2019-02-15T02:28:26.939Z,407.94
2019-02-15T02:29:26.928Z,407.33
2019-02-15T02:30:26.934Z,407.74
2019-02-15T02:31:26.896Z,407.84
2019-02-15T02:32:26.879Z,407.98
2019-02-15T02:33:26.879Z,407.96
2019-02-15T02:34:26.861Z,407.19
2019-02-15T02:35:26.887Z,407.72
2019-02-15T02:36:26.853Z,408.70
2019-02-15T02:37:26.827Z,407.96
2019-02-15T02:38:26.824Z,407.26
2019-02-15T02:39:26.806Z,408.04
2019-02-15T02:40:26.811Z,408.14
2019-02-15T02:41:26.801Z,407.85
2019-02-15T02:42:26.801Z,406.54
2019-02-15T02:43:26.759Z,406.94
2019-02-15T02:44:26.764Z,407.89
2019-02-15T02:45:26.765Z,407.75
2019-02-15T02:46:26.744Z,406.97
2019-02-15T02:47:26.721Z,407.40
2019-02-15T02:48:26.720Z,407.60
2019-02-15T02:49:26.706Z,407.38
2019-02-15T02:50:26.715Z,406.66
2019-02-15T02:51:26.678Z,407.93
2019-02-15T02:52:26.665Z,407.69
2019-02-15T02:53:26.666Z,407.45
2019-02-15T02:54:26.660Z,407.80
2019-02-15T02:55:26.662Z,407.50
2019-02-15T02:56:26.634Z,407.24
2019-02-15T02:57:26.636Z,407.70
2019-02-15T02:58:26.597Z,407.16
2019-02-15T02:59:26.592Z,407.49
2019-02-15T03:00:33.259Z,407.09
2019-02-15T03:01:27.573Z,406.42
2019-02-15T03:02:26.555Z,406.78
2019-02-15T03:03:26.551Z,407.26
2019-02-15T03:04:26.534Z,406.37
2019-02-15T03:05:26.552Z,406.43
2019-02-15T03:06:26.509Z,406.63
2019-02-15T03:07:26.497Z,406.69
2019-02-15T03:08:26.498Z,407.32
2019-02-15T03:09:26.474Z,407.48
2019-02-15T03:10:26.466Z,407.72
2019-02-15T03:11:26.468Z,407.80
2019-02-15T03:12:26.442Z,407.88
2019-02-15T03:13:26.435Z,408.06
2019-02-15T03:14:26.418Z,408.61
2019-02-15T03:15:26.413Z,408.39
2019-02-15T03:16:26.429Z,408.21
2019-02-15T03:17:26.384Z,407.99
2019-02-15T03:18:26.374Z,407.62
2019-02-15T03:19:26.365Z,408.93
2019-02-15T03:20:31.168Z,408.50
2019-02-15T03:21:27.358Z,408.29
2019-02-15T03:22:26.326Z,408.70
2019-02-15T03:23:26.321Z,408.85
2019-02-15T03:24:26.314Z,408.23
2019-02-15T03:25:26.312Z,408.92
2019-02-15T03:26:26.295Z,408.21
2019-02-15T03:27:26.273Z,408.90
2019-02-15T03:28:26.263Z,408.43
2019-02-15T03:29:26.244Z,408.75
2019-02-15T03:30:26.256Z,408.32
2019-02-15T03:31:26.256Z,408.72
2019-02-15T03:32:26.234Z,408.49
2019-02-15T03:33:26.210Z,408.64
2019-02-15T03:34:26.206Z,408.62
2019-02-15T03:35:26.180Z,408.83
2019-02-15T03:36:26.196Z,408.84
2019-02-15T03:37:26.181Z,409.73
2019-02-15T03:38:26.157Z,409.00
2019-02-15T03:39:26.151Z,409.01
2019-02-15T03:40:26.162Z,408.74
2019-02-15T03:41:26.144Z,408.15
2019-02-15T03:42:26.109Z,408.38
2019-02-15T03:43:26.099Z,408.55
2019-02-15T03:44:26.090Z,408.44
2019-02-15T03:45:26.077Z,408.37
2019-02-15T03:46:26.094Z,409.09
2019-02-15T03:47:26.051Z,408.36
2019-02-15T03:48:26.057Z,408.52
2019-02-15T03:49:26.023Z,409.14
2019-02-15T03:50:26.025Z,409.13
2019-02-15T03:51:26.032Z,408.63
2019-02-15T03:52:26.000Z,409.06
2019-02-15T03:53:26.001Z,408.90
2019-02-15T03:54:25.984Z,408.92
2019-02-15T03:55:25.981Z,407.65
2019-02-15T03:56:25.963Z,408.14
2019-02-15T03:57:25.938Z,408.59
2019-02-15T03:58:25.937Z,409.02
2019-02-15T03:59:25.940Z,408.62
2019-02-15T04:00:25.905Z,408.24
2019-02-15T04:01:25.913Z,408.52
2019-02-15T04:02:25.886Z,408.57
2019-02-15T04:03:25.873Z,408.20
2019-02-15T04:04:25.878Z,408.20
2019-02-15T04:05:25.860Z,408.63
2019-02-15T04:06:25.873Z,408.70
2019-02-15T04:07:25.848Z,408.02
2019-02-15T04:08:25.826Z,407.94
2019-02-15T04:09:25.819Z,408.88
2019-02-15T04:10:25.796Z,408.38
2019-02-15T04:11:25.826Z,407.78
2019-02-15T04:12:25.768Z,408.58
2019-02-15T04:13:25.773Z,408.14
2019-02-15T04:14:32.434Z,407.81
2019-02-15T04:15:26.742Z,408.39
2019-02-15T04:16:25.768Z,408.21
2019-02-15T04:17:25.731Z,408.26
2019-02-15T04:18:25.719Z,408.05
2019-02-15T04:19:25.698Z,408.62
2019-02-15T04:20:25.687Z,409.15
2019-02-15T04:21:25.699Z,408.18
2019-02-15T04:22:25.674Z,408.69
2019-02-15T04:23:25.670Z,408.23
2019-02-15T04:24:25.645Z,408.18
2019-02-15T04:25:25.630Z,408.62
2019-02-15T04:26:25.636Z,408.20
2019-02-15T04:27:25.614Z,408.26
2019-02-15T04:28:25.598Z,408.11
2019-02-15T04:29:25.595Z,408.36
2019-02-15T04:30:25.588Z,408.29
2019-02-15T04:31:25.597Z,408.05
2019-02-15T04:32:25.564Z,408.64
2019-02-15T04:33:25.539Z,408.46
2019-02-15T04:34:25.530Z,407.65
2019-02-15T04:35:25.532Z,408.45
2019-02-15T04:36:25.528Z,408.39
2019-02-15T04:37:25.502Z,408.60
2019-02-15T04:38:25.486Z,407.55
2019-02-15T04:39:25.609Z,408.65
2019-02-15T04:40:25.466Z,408.53
2019-02-15T04:41:25.475Z,407.90
2019-02-15T04:42:25.445Z,408.35
2019-02-15T04:43:25.444Z,408.33
2019-02-15T04:44:25.428Z,408.20
2019-02-15T04:45:25.419Z,408.57
2019-02-15T04:46:25.424Z,408.86
2019-02-15T04:47:25.383Z,408.39
2019-02-15T04:48:25.381Z,409.04
2019-02-15T04:49:25.453Z,408.92
2019-02-15T04:50:25.364Z,409.25
2019-02-15T04:51:25.363Z,408.77
2019-02-15T04:52:25.333Z,408.35
2019-02-15T04:53:25.320Z,408.05
2019-02-15T04:54:25.322Z,408.51
2019-02-15T04:55:25.320Z,408.34
2019-02-15T04:56:25.313Z,408.55
2019-02-15T04:57:25.287Z,408.26
2019-02-15T04:58:25.268Z,408.61
2019-02-15T04:59:25.259Z,407.98
2019-02-15T05:00:25.247Z,407.74
2019-02-15T05:01:25.267Z,407.38
2019-02-15T05:02:25.242Z,407.80
2019-02-15T05:03:25.209Z,407.52
2019-02-15T05:04:25.195Z,407.94
2019-02-15T05:05:25.199Z,407.95
2019-02-15T05:06:25.205Z,408.49
2019-02-15T05:07:25.179Z,408.46
2019-02-15T05:08:25.153Z,408.74
2019-02-15T05:09:25.149Z,408.01
2019-02-15T05:10:25.140Z,409.27
2019-02-15T05:11:25.146Z,408.90
2019-02-15T05:12:25.109Z,408.08
2019-02-15T05:13:25.092Z,408.77
2019-02-15T05:14:25.107Z,408.42
2019-02-15T05:15:25.089Z,408.81
2019-02-15T05:16:25.081Z,408.46
2019-02-15T05:17:25.061Z,408.41
2019-02-15T05:18:25.070Z,407.44
2019-02-15T05:19:25.057Z,408.80
2019-02-15T05:20:25.015Z,407.61
2019-02-15T05:21:25.025Z,407.81
2019-02-15T05:22:24.994Z,407.62
2019-02-15T05:23:24.986Z,408.60
2019-02-15T05:24:24.982Z,408.93
2019-02-15T05:25:24.984Z,408.60
2019-02-15T05:26:24.994Z,408.22
2019-02-15T05:27:24.941Z,408.61
2019-02-15T05:28:24.930Z,407.99
2019-02-15T05:29:24.942Z,408.56
2019-02-15T05:30:24.908Z,407.27
2019-02-15T05:31:24.918Z,408.24
2019-02-15T05:32:24.890Z,407.31
2019-02-15T05:33:24.879Z,407.77
2019-02-15T05:34:24.872Z,409.02
2019-02-15T05:35:24.881Z,408.56
2019-02-15T05:36:24.862Z,410.02
2019-02-15T05:37:24.852Z,409.31
2019-02-15T05:38:24.816Z,409.50
2019-02-15T05:39:24.828Z,409.10
2019-02-15T05:40:24.804Z,409.95
2019-02-15T05:41:24.798Z,409.26
2019-02-15T05:42:24.772Z,409.06
2019-02-15T05:43:24.770Z,408.95
2019-02-15T05:44:24.770Z,408.91
2019-02-15T05:45:24.769Z,409.15
2019-02-15T05:46:24.788Z,408.75
2019-02-15T05:47:24.732Z,409.04
2019-02-15T05:48:24.718Z,409.16
2019-02-15T05:49:24.717Z,408.56
2019-02-15T05:50:24.693Z,409.14
2019-02-15T05:51:24.694Z,408.21
2019-02-15T05:52:24.678Z,408.47
2019-02-15T05:53:24.686Z,408.13
2019-02-15T05:54:24.645Z,409.09
2019-02-15T05:55:24.634Z,407.95
2019-02-15T05:56:24.642Z,408.23
2019-02-15T05:57:24.617Z,407.99
2019-02-15T05:58:24.623Z,407.92
2019-02-15T05:59:24.586Z,408.88
2019-02-15T06:00:24.577Z,409.18
2019-02-15T06:01:24.611Z,408.66
2019-02-15T06:02:24.556Z,407.75
2019-02-15T06:03:24.554Z,408.21
2019-02-15T06:04:24.532Z,408.43
2019-02-15T06:05:24.522Z,407.88
2019-02-15T06:06:24.519Z,407.62
2019-02-15T06:07:24.527Z,407.73
2019-02-15T06:08:24.485Z,407.12
2019-02-15T06:09:24.484Z,407.72
2019-02-15T06:10:24.470Z,407.56
2019-02-15T06:11:24.480Z,408.38
2019-02-15T06:12:24.472Z,407.52
2019-02-15T06:13:24.449Z,407.66
2019-02-15T06:14:24.441Z,407.60
2019-02-15T06:15:24.420Z,407.18
2019-02-15T06:16:24.400Z,407.65
2019-02-15T06:17:24.423Z,407.73
2019-02-15T06:18:24.384Z,407.64
2019-02-15T06:19:24.417Z,408.38
2019-02-15T06:20:24.360Z,408.75
2019-02-15T06:21:24.351Z,409.16
2019-02-15T06:22:24.362Z,408.87
2019-02-15T06:23:24.345Z,408.52
2019-02-15T06:24:24.335Z,408.45
2019-02-15T06:25:24.316Z,408.60
2019-02-15T06:26:24.305Z,408.67
2019-02-15T06:27:24.312Z,409.76
2019-02-15T06:28:24.295Z,409.14
2019-02-15T06:29:24.273Z,408.24
2019-02-15T06:30:24.250Z,409.07
2019-02-15T06:31:24.251Z,408.94
2019-02-15T06:32:24.244Z,411.66
2019-02-15T06:33:24.227Z,411.38
2019-02-15T06:34:24.221Z,411.02
2019-02-15T06:35:24.218Z,410.61
2019-02-15T06:36:24.187Z,410.71
2019-02-15T06:37:24.262Z,409.96
2019-02-15T06:38:24.204Z,411.87
2019-02-15T06:39:24.163Z,410.87
2019-02-15T06:40:24.146Z,411.53
2019-02-15T06:41:24.142Z,410.88
2019-02-15T06:42:24.139Z,411.01
2019-02-15T06:43:24.123Z,410.61
2019-02-15T06:44:24.103Z,411.11
2019-02-15T06:45:25.455Z,411.18
2019-02-15T06:46:24.123Z,411.80
2019-02-15T06:47:24.104Z,411.15
2019-02-15T06:48:24.098Z,411.72
2019-02-15T06:49:24.095Z,410.38
2019-02-15T06:50:24.043Z,409.93
2019-02-15T06:51:24.050Z,409.79
2019-02-15T06:52:24.067Z,410.98
2019-02-15T06:53:24.022Z,409.48
2019-02-15T06:54:24.054Z,410.09
2019-02-15T06:55:23.977Z,409.37
2019-02-15T06:56:23.978Z,410.50
2019-02-15T06:57:23.971Z,409.65
2019-02-15T06:58:23.976Z,410.37
2019-02-15T06:59:23.946Z,409.28
2019-02-15T07:00:23.920Z,410.98
2019-02-15T07:01:23.921Z,410.11
2019-02-15T07:02:23.916Z,410.99
2019-02-15T07:03:23.910Z,410.31
2019-02-15T07:04:23.882Z,411.05
2019-02-15T07:05:23.884Z,409.95
2019-02-15T07:06:23.852Z,409.83
2019-02-15T07:07:23.840Z,410.34
2019-02-15T07:08:23.868Z,410.99
2019-02-15T07:09:23.835Z,410.06
2019-02-15T07:10:23.808Z,410.04
2019-02-15T07:11:23.799Z,411.37
2019-02-15T07:12:23.797Z,411.38
2019-02-15T07:13:23.780Z,410.64
2019-02-15T07:14:23.782Z,409.97
2019-02-15T07:15:23.756Z,410.19
2019-02-15T07:16:23.757Z,410.68
2019-02-15T07:17:23.737Z,410.24
2019-02-15T07:18:23.726Z,410.20
2019-02-15T07:19:23.734Z,409.62
2019-02-15T07:20:23.712Z,411.14
2019-02-15T07:21:23.699Z,410.67
2019-02-15T07:22:23.693Z,410.34
2019-02-15T07:23:23.674Z,410.32
2019-02-15T07:24:23.677Z,410.79
2019-02-15T07:25:23.649Z,412.02
2019-02-15T07:26:23.678Z,411.65
2019-02-15T07:27:23.633Z,410.98
2019-02-15T07:28:23.613Z,411.80
2019-02-15T07:29:23.640Z,411.07
2019-02-15T07:30:23.592Z,411.17
2019-02-15T07:31:23.584Z,411.49
2019-02-15T07:32:23.582Z,410.51
2019-02-15T07:33:23.578Z,411.58
2019-02-15T07:34:23.560Z,410.76
2019-02-15T07:35:23.567Z,411.19
2019-02-15T07:36:23.530Z,410.82
2019-02-15T07:37:23.517Z,410.99
2019-02-15T07:38:23.560Z,411.53
2019-02-15T07:39:23.491Z,411.37
2019-02-15T07:40:23.591Z,410.91
2019-02-15T07:41:23.485Z,411.05
2019-02-15T07:42:23.463Z,410.78
2019-02-15T07:43:23.451Z,410.55
2019-02-15T07:44:23.435Z,410.92
2019-02-15T07:45:23.476Z,410.91
2019-02-15T07:46:23.424Z,411.48
2019-02-15T07:47:23.413Z,411.35
2019-02-15T07:48:23.405Z,411.02
2019-02-15T07:49:26.965Z,411.10
2019-02-15T07:50:23.366Z,411.45
2019-02-15T07:51:23.375Z,411.49
2019-02-15T07:52:23.351Z,412.28
2019-02-15T07:53:23.339Z,411.12
2019-02-15T07:54:23.337Z,412.19
2019-02-15T07:55:23.321Z,411.77
2019-02-15T07:56:23.331Z,412.28
2019-02-15T07:57:23.299Z,411.15
2019-02-15T07:58:23.297Z,412.13
2019-02-15T07:59:23.281Z,411.70
2019-02-15T08:00:23.264Z,411.84
2019-02-15T08:01:23.263Z,412.52
2019-02-15T08:02:23.240Z,411.58
2019-02-15T08:03:23.220Z,412.09
2019-02-15T08:04:23.209Z,412.02
2019-02-15T08:05:23.610Z,412.21
2019-02-15T08:06:23.200Z,412.04
2019-02-15T08:07:23.187Z,411.34
2019-02-15T08:08:23.172Z,411.45
2019-02-15T08:09:23.163Z,411.52
2019-02-15T08:10:23.143Z,411.40
2019-02-15T08:11:23.176Z,411.64
2019-02-15T08:12:23.129Z,411.52
2019-02-15T08:13:23.152Z,411.32
2019-02-15T08:14:23.099Z,411.57
2019-02-15T08:15:23.092Z,411.14
2019-02-15T08:16:23.097Z,411.81
2019-02-15T08:17:23.091Z,411.07
2019-02-15T08:18:23.059Z,411.69
2019-02-15T08:19:23.045Z,410.86
2019-02-15T08:20:23.033Z,411.06
2019-02-15T08:21:23.031Z,410.55
2019-02-15T08:22:23.039Z,411.07
2019-02-15T08:23:23.000Z,411.04
2019-02-15T08:24:23.000Z,411.98
2019-02-15T08:25:22.988Z,411.47
2019-02-15T08:26:22.966Z,410.99
2019-02-15T08:27:22.967Z,410.67
2019-02-15T08:28:22.950Z,412.70
2019-02-15T08:29:22.944Z,411.93
2019-02-15T08:30:22.914Z,411.42
2019-02-15T08:31:22.929Z,411.14
2019-02-15T08:32:22.945Z,411.88
2019-02-15T08:33:22.897Z,410.98
2019-02-15T08:34:22.930Z,411.58
2019-02-15T08:35:22.899Z,411.34
2019-02-15T08:36:22.856Z,411.19
2019-02-15T08:37:22.883Z,411.66
2019-02-15T08:38:22.865Z,411.01
2019-02-15T08:39:22.819Z,411.32
2019-02-15T08:40:22.815Z,410.80
2019-02-15T08:41:22.799Z,411.74
2019-02-15T08:42:22.794Z,411.64
2019-02-15T08:43:22.796Z,410.99
2019-02-15T08:44:22.774Z,410.40
2019-02-15T08:45:22.758Z,410.55
2019-02-15T08:46:22.736Z,411.61
2019-02-15T08:47:22.740Z,411.25
2019-02-15T08:48:22.742Z,411.15
2019-02-15T08:49:22.732Z,411.59
2019-02-15T08:50:22.698Z,411.45
2019-02-15T08:51:22.694Z,411.30
2019-02-15T08:52:22.684Z,411.20
2019-02-15T08:53:22.685Z,410.96
2019-02-15T08:54:22.656Z,411.94
2019-02-15T08:55:22.656Z,411.19
2019-02-15T08:56:22.630Z,411.35
2019-02-15T08:57:22.624Z,410.91
2019-02-15T08:58:22.625Z,412.24
2019-02-15T08:59:22.603Z,411.41
2019-02-15T09:00:22.580Z,410.66
2019-02-15T09:01:22.572Z,411.71
2019-02-15T09:02:22.578Z,412.46
2019-02-15T09:03:22.568Z,411.75
2019-02-15T09:04:22.539Z,411.50
2019-02-15T09:05:22.525Z,411.99
2019-02-15T09:06:22.534Z,412.43
2019-02-15T09:07:22.513Z,411.05
2019-02-15T09:08:22.521Z,411.20
2019-02-15T09:09:22.481Z,411.47
2019-02-15T09:10:22.472Z,412.33
2019-02-15T09:11:22.468Z,411.30
2019-02-15T09:12:22.447Z,411.59
2019-02-15T09:13:22.457Z,411.49
2019-02-15T09:14:22.451Z,411.51
2019-02-15T09:15:22.413Z,410.87
2019-02-15T09:16:22.413Z,409.88
2019-02-15T09:17:22.405Z,411.04
2019-02-15T09:18:22.423Z,410.91
2019-02-15T09:19:22.384Z,410.56
2019-02-15T09:20:22.382Z,410.01
2019-02-15T09:21:22.353Z,409.97
2019-02-15T09:22:22.341Z,410.92
2019-02-15T09:23:22.355Z,411.73
2019-02-15T09:24:22.319Z,411.29
2019-02-15T09:25:22.319Z,409.30
2019-02-15T09:26:22.303Z,412.39
2019-02-15T09:27:23.020Z,411.93
2019-02-15T09:28:22.306Z,411.58
2019-02-15T09:29:22.262Z,411.37
2019-02-15T09:30:22.259Z,411.87
2019-02-15T09:31:22.240Z,410.95
2019-02-15T09:32:22.249Z,410.33
2019-02-15T09:33:22.215Z,412.83
2019-02-15T09:34:22.229Z,412.61
2019-02-15T09:35:22.202Z,412.24
2019-02-15T09:36:22.185Z,412.52
2019-02-15T09:37:22.180Z,413.08
2019-02-15T09:38:22.166Z,411.98
2019-02-15T09:39:22.172Z,410.97
2019-02-15T09:40:22.173Z,410.71
2019-02-15T09:41:22.139Z,411.14
2019-02-15T09:42:22.112Z,410.64
2019-02-15T09:43:22.115Z,410.60
2019-02-15T09:44:22.120Z,411.57
2019-02-15T09:45:22.096Z,410.72
2019-02-15T09:46:22.076Z,410.79
2019-02-15T09:47:22.080Z,411.13
2019-02-15T09:48:22.051Z,411.15
2019-02-15T09:49:22.617Z,410.89
2019-02-15T09:50:22.039Z,411.31
2019-02-15T09:51:22.036Z,410.60
2019-02-15T09:52:22.004Z,412.12
2019-02-15T09:53:22.006Z,411.53
2019-02-15T09:54:22.008Z,410.74
2019-02-15T09:55:21.974Z,411.63
2019-02-15T09:56:21.963Z,411.96
2019-02-15T09:57:21.956Z,410.75
2019-02-15T09:58:21.954Z,412.57
2019-02-15T09:59:21.950Z,411.85
2019-02-15T10:00:21.926Z,411.90
2019-02-15T10:01:21.914Z,411.92
2019-02-15T10:02:21.905Z,412.86
2019-02-15T10:03:21.905Z,411.85
2019-02-15T10:04:21.884Z,412.17
2019-02-15T10:05:21.882Z,411.83
2019-02-15T10:06:22.026Z,410.88
2019-02-15T10:07:21.844Z,413.47
2019-02-15T10:08:21.834Z,411.45
2019-02-15T10:09:21.845Z,412.48
2019-02-15T10:10:21.817Z,411.95
2019-02-15T10:11:21.805Z,412.03
2019-02-15T10:12:21.798Z,412.98
2019-02-15T10:13:21.783Z,411.79
2019-02-15T10:14:21.780Z,412.22
2019-02-15T10:15:21.761Z,411.64
2019-02-15T10:16:28.692Z,411.33
2019-02-15T10:17:22.727Z,410.93
2019-02-15T10:18:21.746Z,413.47
2019-02-15T10:19:22.667Z,412.77
2019-02-15T10:20:21.720Z,414.19
2019-02-15T10:21:21.692Z,412.04
2019-02-15T10:22:21.716Z,411.94
2019-02-15T10:23:21.685Z,412.09
2019-02-15T10:24:21.695Z,410.80
2019-02-15T10:25:21.661Z,410.84
2019-02-15T10:26:21.640Z,411.66
2019-02-15T10:27:21.639Z,411.61
2019-02-15T10:28:21.620Z,408.22
2019-02-15T10:29:21.630Z,411.35
2019-02-15T10:30:21.601Z,410.94
2019-02-15T10:31:21.649Z,412.16
2019-02-15T10:32:21.578Z,410.81
2019-02-15T10:33:21.564Z,410.95
2019-02-15T10:34:21.566Z,408.78
2019-02-15T10:35:21.580Z,410.34
2019-02-15T10:36:21.551Z,407.42
2019-02-15T10:37:21.578Z,410.03
2019-02-15T10:38:21.519Z,411.16
2019-02-15T10:39:21.519Z,411.20
2019-02-15T10:40:21.477Z,411.70
2019-02-15T10:41:21.479Z,409.74
2019-02-15T10:42:21.453Z,411.29
2019-02-15T10:43:21.458Z,411.24
2019-02-15T10:44:21.466Z,410.59
2019-02-15T10:45:21.435Z,411.18
2019-02-15T10:46:21.522Z,410.56
2019-02-15T10:47:25.147Z,411.90
2019-02-15T10:48:21.395Z,411.48
2019-02-15T10:49:21.403Z,411.00
2019-02-15T10:50:21.372Z,411.65
2019-02-15T10:51:21.360Z,410.93
2019-02-15T10:52:21.351Z,411.91
2019-02-15T10:53:21.350Z,409.39
2019-02-15T10:54:21.367Z,412.36
2019-02-15T10:55:21.328Z,411.69
2019-02-15T10:56:21.301Z,410.84
2019-02-15T10:57:21.298Z,414.11
2019-02-15T10:58:21.306Z,412.15
2019-02-15T10:59:21.264Z,412.91
2019-02-15T11:00:21.302Z,407.57
2019-02-15T11:01:21.274Z,412.47
2019-02-15T11:02:21.242Z,411.97
2019-02-15T11:03:21.296Z,409.05
2019-02-15T11:04:21.217Z,411.85
2019-02-15T11:05:21.218Z,411.89
2019-02-15T11:06:21.189Z,409.22
2019-02-15T11:07:21.189Z,411.45
2019-02-15T11:08:21.166Z,410.49
2019-02-15T11:09:21.168Z,409.55
2019-02-15T11:10:21.165Z,411.52
2019-02-15T11:11:21.138Z,412.24
2019-02-15T11:12:21.127Z,410.92
2019-02-15T11:13:21.136Z,410.85
2019-02-15T11:14:21.110Z,411.16
2019-02-15T11:15:21.117Z,410.00
2019-02-15T11:16:21.076Z,410.99
2019-02-15T11:17:21.074Z,411.12
2019-02-15T11:18:21.064Z,410.47
2019-02-15T11:19:21.058Z,409.61
2019-02-15T11:20:21.070Z,406.59
2019-02-15T11:21:21.044Z,411.69
2019-02-15T11:22:21.022Z,410.17
2019-02-15T11:23:21.046Z,412.21
2019-02-15T11:24:20.996Z,410.41
2019-02-15T11:25:21.015Z,410.81
2019-02-15T11:26:24.720Z,411.94
2019-02-15T11:27:21.037Z,411.58
2019-02-15T11:28:20.967Z,409.94
2019-02-15T11:29:20.939Z,408.17
2019-02-15T11:30:20.944Z,411.63
2019-02-15T11:31:20.914Z,412.26
2019-02-15T11:32:20.929Z,409.25
2019-02-15T11:33:20.915Z,413.67
2019-02-15T11:34:20.882Z,411.16
2019-02-15T11:35:20.901Z,410.92
2019-02-15T11:36:20.869Z,408.82
2019-02-15T11:37:20.858Z,408.05
2019-02-15T11:38:20.846Z,410.37
2019-02-15T11:39:20.827Z,409.82
2019-02-15T11:40:20.884Z,409.26
2019-02-15T11:41:20.828Z,410.64
2019-02-15T11:42:20.796Z,409.96
2019-02-15T11:43:20.818Z,409.49
2019-02-15T11:44:20.773Z,409.13
2019-02-15T11:45:20.787Z,410.01
2019-02-15T11:46:20.748Z,409.60
2019-02-15T11:47:20.749Z,409.01
2019-02-15T11:48:20.784Z,406.41
2019-02-15T11:49:20.721Z,408.57
2019-02-15T11:50:20.758Z,410.62
2019-02-15T11:51:20.705Z,412.91
2019-02-15T11:52:20.686Z,404.92
2019-02-15T11:53:20.684Z,412.74
2019-02-15T11:54:23.544Z,407.62
2019-02-15T11:55:20.689Z,413.59
2019-02-15T11:56:20.656Z,409.62
2019-02-15T11:57:20.641Z,406.48
2019-02-15T11:58:20.639Z,408.84
2019-02-15T11:59:20.603Z,406.64
2019-02-15T12:00:23.059Z,412.24
2019-02-15T12:01:20.591Z,409.97
2019-02-15T12:02:20.567Z,410.79
2019-02-15T12:03:20.558Z,409.68
2019-02-15T12:04:20.572Z,410.03
2019-02-15T12:05:20.561Z,410.81
2019-02-15T12:06:20.534Z,410.79
2019-02-15T12:07:20.524Z,412.02
2019-02-15T12:08:20.507Z,411.40
2019-02-15T12:09:20.504Z,409.41
2019-02-15T12:10:20.505Z,413.65
2019-02-15T12:11:20.500Z,407.54
2019-02-15T12:12:20.465Z,410.75
2019-02-15T12:13:20.465Z,413.68
2019-02-15T12:14:20.441Z,409.58
2019-02-15T12:15:20.452Z,411.57
2019-02-15T12:16:20.424Z,409.99
2019-02-15T12:17:20.438Z,407.51
2019-02-15T12:18:20.396Z,412.65
2019-02-15T12:19:20.390Z,414.01
2019-02-15T12:20:20.391Z,411.48
2019-02-15T12:21:20.371Z,408.63
2019-02-15T12:22:20.357Z,409.58
2019-02-15T12:23:20.338Z,407.53
2019-02-15T12:24:20.338Z,412.14
2019-02-15T12:25:20.346Z,408.71
2019-02-15T12:26:20.314Z,409.66
2019-02-15T12:27:20.305Z,412.49
2019-02-15T12:28:20.282Z,405.71